sensor_id;sensor_type;location;lat;lon;timestamp;P1;durP1;ratioP1;P2;durP2;ratioP2
8488;SDS011;4281;45.772;12.852;2023-01-19T00:01:34;12.63;;;11.33;;
8488;SDS011;4281;45.772;12.852;2023-01-19T00:04:01;12.00;;;10.80;;
8488;SDS011;4281;45.772;12.852;2023-01-19T00:06:29;11.97;;;10.80;;
8488;SDS011;4281;45.772;12.852;2023-01-19T00:08:57;12.93;;;11.63;;
8488;SDS011;4281;45.772;12.852;2023-01-19T00:11:25;13.00;;;11.80;;
8488;SDS011;4281;45.772;12.852;2023-01-19T00:13:53;11.80;;;10.70;;
8488;SDS011;4281;45.772;12.852;2023-01-19T00:16:22;12.50;;;11.23;;
8488;SDS011;4281;45.772;12.852;2023-01-19T00:18:50;11.77;;;10.67;;
8488;SDS011;4281;45.772;12.852;2023-01-19T00:21:19;11.83;;;10.73;;
8488;SDS011;4281;45.772;12.852;2023-01-19T00:23:48;11.93;;;10.73;;
8488;SDS011;4281;45.772;12.852;2023-01-19T00:26:18;11.57;;;10.47;;
8488;SDS011;4281;45.772;12.852;2023-01-19T00:28:47;10.90;;;9.80;;
8488;SDS011;4281;45.772;12.852;2023-01-19T00:31:16;11.27;;;10.10;;
8488;SDS011;4281;45.772;12.852;2023-01-19T00:33:47;9.80;;;8.80;;
8488;SDS011;4281;45.772;12.852;2023-01-19T00:36:17;10.07;;;9.07;;
8488;SDS011;4281;45.772;12.852;2023-01-19T00:38:45;10.03;;;9.03;;
8488;SDS011;4281;45.772;12.852;2023-01-19T00:41:13;9.40;;;8.50;;
8488;SDS011;4281;45.772;12.852;2023-01-19T00:43:40;8.73;;;7.93;;
8488;SDS011;4281;45.772;12.852;2023-01-19T00:46:07;8.77;;;7.87;;
8488;SDS011;4281;45.772;12.852;2023-01-19T00:48:35;7.77;;;7.03;;
8488;SDS011;4281;45.772;12.852;2023-01-19T00:51:04;8.73;;;7.93;;
8488;SDS011;4281;45.772;12.852;2023-01-19T00:53:32;8.17;;;7.37;;
8488;SDS011;4281;45.772;12.852;2023-01-19T00:56:00;8.43;;;7.63;;
8488;SDS011;4281;45.772;12.852;2023-01-19T00:58:27;8.33;;;7.53;;
8488;SDS011;4281;45.772;12.852;2023-01-19T01:00:55;7.90;;;7.17;;
8488;SDS011;4281;45.772;12.852;2023-01-19T01:03:28;8.10;;;7.30;;
8488;SDS011;4281;45.772;12.852;2023-01-19T01:05:56;8.13;;;7.43;;
8488;SDS011;4281;45.772;12.852;2023-01-19T01:08:25;8.63;;;7.83;;
8488;SDS011;4281;45.772;12.852;2023-01-19T01:10:53;7.50;;;6.80;;
8488;SDS011;4281;45.772;12.852;2023-01-19T01:13:21;8.47;;;7.67;;
8488;SDS011;4281;45.772;12.852;2023-01-19T01:15:53;8.90;;;7.77;;
8488;SDS011;4281;45.772;12.852;2023-01-19T01:18:21;9.37;;;8.47;;
8488;SDS011;4281;45.772;12.852;2023-01-19T01:20:49;8.30;;;7.50;;
8488;SDS011;4281;45.772;12.852;2023-01-19T01:23:20;9.03;;;8.13;;
8488;SDS011;4281;45.772;12.852;2023-01-19T01:25:49;8.63;;;7.73;;
8488;SDS011;4281;45.772;12.852;2023-01-19T01:28:17;8.90;;;8.00;;
8488;SDS011;4281;45.772;12.852;2023-01-19T01:30:45;8.73;;;7.93;;
8488;SDS011;4281;45.772;12.852;2023-01-19T01:33:12;8.33;;;7.53;;
8488;SDS011;4281;45.772;12.852;2023-01-19T01:36:00;8.40;;;7.70;;
8488;SDS011;4281;45.772;12.852;2023-01-19T01:38:28;8.27;;;7.20;;
8488;SDS011;4281;45.772;12.852;2023-01-19T01:40:57;8.30;;;7.50;;
8488;SDS011;4281;45.772;12.852;2023-01-19T01:43:39;8.17;;;7.37;;
8488;SDS011;4281;45.772;12.852;2023-01-19T01:46:10;8.07;;;7.30;;
8488;SDS011;4281;45.772;12.852;2023-01-19T01:48:40;7.50;;;6.80;;
8488;SDS011;4281;45.772;12.852;2023-01-19T01:51:11;8.20;;;7.50;;
8488;SDS011;4281;45.772;12.852;2023-01-19T01:53:54;7.20;;;6.50;;
8488;SDS011;4281;45.772;12.852;2023-01-19T01:56:34;6.50;;;5.90;;
8488;SDS011;4281;45.772;12.852;2023-01-19T01:59:04;6.83;;;6.23;;
8488;SDS011;4281;45.772;12.852;2023-01-19T02:01:34;6.97;;;6.20;;
8488;SDS011;4281;45.772;12.852;2023-01-19T02:04:20;7.83;;;6.53;;
8488;SDS011;4281;45.772;12.852;2023-01-19T02:06:49;6.97;;;6.37;;
8488;SDS011;4281;45.772;12.852;2023-01-19T02:09:35;7.47;;;6.50;;
8488;SDS011;4281;45.772;12.852;2023-01-19T02:12:25;7.07;;;6.47;;
8488;SDS011;4281;45.772;12.852;2023-01-19T02:15:14;6.50;;;5.90;;
8488;SDS011;4281;45.772;12.852;2023-01-19T02:17:43;6.70;;;6.00;;
8488;SDS011;4281;45.772;12.852;2023-01-19T02:20:11;6.80;;;6.10;;
8488;SDS011;4281;45.772;12.852;2023-01-19T02:22:41;6.40;;;5.80;;
8488;SDS011;4281;45.772;12.852;2023-01-19T02:25:14;5.97;;;5.40;;
8488;SDS011;4281;45.772;12.852;2023-01-19T02:27:43;6.40;;;5.80;;
8488;SDS011;4281;45.772;12.852;2023-01-19T02:30:11;5.70;;;5.07;;
8488;SDS011;4281;45.772;12.852;2023-01-19T02:32:41;6.00;;;5.03;;
8488;SDS011;4281;45.772;12.852;2023-01-19T02:35:09;4.93;;;4.43;;
8488;SDS011;4281;45.772;12.852;2023-01-19T02:37:38;5.60;;;5.10;;
8488;SDS011;4281;45.772;12.852;2023-01-19T02:40:07;5.03;;;4.57;;
8488;SDS011;4281;45.772;12.852;2023-01-19T02:42:39;4.90;;;4.23;;
8488;SDS011;4281;45.772;12.852;2023-01-19T02:45:10;5.00;;;4.47;;
8488;SDS011;4281;45.772;12.852;2023-01-19T02:47:40;3.80;;;3.50;;
8488;SDS011;4281;45.772;12.852;2023-01-19T02:53:07;3.60;;;3.30;;
8488;SDS011;4281;45.772;12.852;2023-01-19T02:55:41;4.10;;;3.40;;
8488;SDS011;4281;45.772;12.852;2023-01-19T02:58:17;4.00;;;3.60;;
8488;SDS011;4281;45.772;12.852;2023-01-19T03:00:49;3.63;;;3.33;;
8488;SDS011;4281;45.772;12.852;2023-01-19T03:03:22;3.33;;;3.03;;
8488;SDS011;4281;45.772;12.852;2023-01-19T03:05:54;3.47;;;3.17;;
8488;SDS011;4281;45.772;12.852;2023-01-19T03:08:28;3.17;;;2.87;;
8488;SDS011;4281;45.772;12.852;2023-01-19T03:11:00;2.93;;;2.73;;
8488;SDS011;4281;45.772;12.852;2023-01-19T03:13:33;3.17;;;2.87;;
8488;SDS011;4281;45.772;12.852;2023-01-19T03:16:10;3.10;;;2.80;;
8488;SDS011;4281;45.772;12.852;2023-01-19T03:18:42;2.73;;;2.53;;
8488;SDS011;4281;45.772;12.852;2023-01-19T03:21:12;2.73;;;2.50;;
8488;SDS011;4281;45.772;12.852;2023-01-19T03:23:43;2.50;;;2.30;;
8488;SDS011;4281;45.772;12.852;2023-01-19T03:26:12;2.60;;;2.33;;
8488;SDS011;4281;45.772;12.852;2023-01-19T03:28:43;2.60;;;2.40;;
8488;SDS011;4281;45.772;12.852;2023-01-19T03:31:13;2.67;;;2.47;;
8488;SDS011;4281;45.772;12.852;2023-01-19T03:33:45;2.57;;;2.37;;
8488;SDS011;4281;45.772;12.852;2023-01-19T03:36:15;2.53;;;2.33;;
8488;SDS011;4281;45.772;12.852;2023-01-19T03:38:45;2.77;;;2.43;;
8488;SDS011;4281;45.772;12.852;2023-01-19T03:41:15;2.80;;;2.60;;
8488;SDS011;4281;45.772;12.852;2023-01-19T03:43:45;2.23;;;2.10;;
8488;SDS011;4281;45.772;12.852;2023-01-19T03:46:14;2.33;;;2.07;;
8488;SDS011;4281;45.772;12.852;2023-01-19T03:48:44;2.37;;;2.17;;
8488;SDS011;4281;45.772;12.852;2023-01-19T03:51:14;2.60;;;2.13;;
8488;SDS011;4281;45.772;12.852;2023-01-19T03:53:43;2.40;;;2.20;;
8488;SDS011;4281;45.772;12.852;2023-01-19T03:56:15;3.07;;;2.30;;
8488;SDS011;4281;45.772;12.852;2023-01-19T03:58:45;2.37;;;2.17;;
8488;SDS011;4281;45.772;12.852;2023-01-19T04:01:13;2.03;;;1.83;;
8488;SDS011;4281;45.772;12.852;2023-01-19T04:03:42;1.80;;;1.70;;
8488;SDS011;4281;45.772;12.852;2023-01-19T04:06:10;1.60;;;1.37;;
8488;SDS011;4281;45.772;12.852;2023-01-19T04:08:37;1.47;;;1.37;;
8488;SDS011;4281;45.772;12.852;2023-01-19T04:11:06;1.07;;;1.07;;
8488;SDS011;4281;45.772;12.852;2023-01-19T04:13:33;1.20;;;1.10;;
8488;SDS011;4281;45.772;12.852;2023-01-19T04:16:03;0.70;;;0.63;;
8488;SDS011;4281;45.772;12.852;2023-01-19T04:18:32;0.77;;;0.60;;
8488;SDS011;4281;45.772;12.852;2023-01-19T04:21:00;1.20;;;0.60;;
8488;SDS011;4281;45.772;12.852;2023-01-19T04:23:28;0.40;;;0.40;;
8488;SDS011;4281;45.772;12.852;2023-01-19T04:25:56;0.40;;;0.40;;
8488;SDS011;4281;45.772;12.852;2023-01-19T04:28:24;0.33;;;0.33;;
8488;SDS011;4281;45.772;12.852;2023-01-19T04:30:52;0.20;;;0.20;;
8488;SDS011;4281;45.772;12.852;2023-01-19T04:33:21;0.20;;;0.20;;
8488;SDS011;4281;45.772;12.852;2023-01-19T04:35:51;0.43;;;0.40;;
8488;SDS011;4281;45.772;12.852;2023-01-19T04:38:20;0.50;;;0.40;;
8488;SDS011;4281;45.772;12.852;2023-01-19T04:40:48;0.30;;;0.30;;
8488;SDS011;4281;45.772;12.852;2023-01-19T04:43:16;0.20;;;0.20;;
8488;SDS011;4281;45.772;12.852;2023-01-19T04:45:44;0.30;;;0.30;;
8488;SDS011;4281;45.772;12.852;2023-01-19T04:48:12;0.30;;;0.30;;
8488;SDS011;4281;45.772;12.852;2023-01-19T04:53:36;0.20;;;0.20;;
8488;SDS011;4281;45.772;12.852;2023-01-19T04:56:04;0.30;;;0.30;;
8488;SDS011;4281;45.772;12.852;2023-01-19T04:58:32;0.30;;;0.30;;
8488;SDS011;4281;45.772;12.852;2023-01-19T05:01:01;0.60;;;0.40;;
8488;SDS011;4281;45.772;12.852;2023-01-19T05:03:36;0.23;;;0.23;;
8488;SDS011;4281;45.772;12.852;2023-01-19T05:06:04;0.30;;;0.30;;
8488;SDS011;4281;45.772;12.852;2023-01-19T05:08:32;0.30;;;0.30;;
8488;SDS011;4281;45.772;12.852;2023-01-19T05:11:01;0.30;;;0.30;;
8488;SDS011;4281;45.772;12.852;2023-01-19T05:13:29;0.60;;;0.40;;
8488;SDS011;4281;45.772;12.852;2023-01-19T05:15:57;0.40;;;0.40;;
8488;SDS011;4281;45.772;12.852;2023-01-19T05:18:24;0.43;;;0.43;;
8488;SDS011;4281;45.772;12.852;2023-01-19T05:20:52;1.90;;;0.70;;
8488;SDS011;4281;45.772;12.852;2023-01-19T05:23:20;0.70;;;0.60;;
8488;SDS011;4281;45.772;12.852;2023-01-19T05:25:47;1.10;;;0.80;;
8488;SDS011;4281;45.772;12.852;2023-01-19T05:28:17;0.70;;;0.60;;
8488;SDS011;4281;45.772;12.852;2023-01-19T05:30:47;1.10;;;0.50;;
8488;SDS011;4281;45.772;12.852;2023-01-19T05:33:15;0.47;;;0.40;;
8488;SDS011;4281;45.772;12.852;2023-01-19T05:35:43;0.73;;;0.50;;
8488;SDS011;4281;45.772;12.852;2023-01-19T05:38:11;0.63;;;0.63;;
8488;SDS011;4281;45.772;12.852;2023-01-19T05:40:42;0.60;;;0.60;;
8488;SDS011;4281;45.772;12.852;2023-01-19T05:43:10;1.07;;;0.70;;
8488;SDS011;4281;45.772;12.852;2023-01-19T05:45:39;0.60;;;0.50;;
8488;SDS011;4281;45.772;12.852;2023-01-19T05:48:07;0.60;;;0.53;;
8488;SDS011;4281;45.772;12.852;2023-01-19T05:50:36;0.50;;;0.50;;
8488;SDS011;4281;45.772;12.852;2023-01-19T05:53:24;0.60;;;0.60;;
8488;SDS011;4281;45.772;12.852;2023-01-19T05:55:52;0.50;;;0.50;;
8488;SDS011;4281;45.772;12.852;2023-01-19T05:58:20;0.50;;;0.50;;
8488;SDS011;4281;45.772;12.852;2023-01-19T06:00:49;0.77;;;0.60;;
8488;SDS011;4281;45.772;12.852;2023-01-19T06:03:17;0.47;;;0.47;;
8488;SDS011;4281;45.772;12.852;2023-01-19T06:05:45;0.60;;;0.50;;
8488;SDS011;4281;45.772;12.852;2023-01-19T06:08:13;1.17;;;0.87;;
8488;SDS011;4281;45.772;12.852;2023-01-19T06:10:40;0.47;;;0.47;;
8488;SDS011;4281;45.772;12.852;2023-01-19T06:13:08;0.70;;;0.60;;
8488;SDS011;4281;45.772;12.852;2023-01-19T06:15:36;0.50;;;0.50;;
8488;SDS011;4281;45.772;12.852;2023-01-19T06:18:05;0.50;;;0.50;;
8488;SDS011;4281;45.772;12.852;2023-01-19T06:20:33;0.37;;;0.37;;
8488;SDS011;4281;45.772;12.852;2023-01-19T06:23:01;0.40;;;0.40;;
8488;SDS011;4281;45.772;12.852;2023-01-19T06:25:29;0.57;;;0.50;;
8488;SDS011;4281;45.772;12.852;2023-01-19T06:27:57;0.67;;;0.50;;
8488;SDS011;4281;45.772;12.852;2023-01-19T06:30:24;0.40;;;0.40;;
8488;SDS011;4281;45.772;12.852;2023-01-19T06:32:52;0.50;;;0.50;;
8488;SDS011;4281;45.772;12.852;2023-01-19T06:35:21;0.90;;;0.70;;
8488;SDS011;4281;45.772;12.852;2023-01-19T06:37:49;0.83;;;0.63;;
8488;SDS011;4281;45.772;12.852;2023-01-19T06:40:17;0.73;;;0.60;;
8488;SDS011;4281;45.772;12.852;2023-01-19T06:42:45;0.70;;;0.70;;
8488;SDS011;4281;45.772;12.852;2023-01-19T06:45:14;0.70;;;0.70;;
8488;SDS011;4281;45.772;12.852;2023-01-19T06:47:42;0.67;;;0.67;;
8488;SDS011;4281;45.772;12.852;2023-01-19T06:50:10;1.00;;;0.80;;
8488;SDS011;4281;45.772;12.852;2023-01-19T06:52:39;0.80;;;0.80;;
8488;SDS011;4281;45.772;12.852;2023-01-19T06:55:08;1.37;;;0.80;;
8488;SDS011;4281;45.772;12.852;2023-01-19T06:57:37;1.00;;;0.90;;
8488;SDS011;4281;45.772;12.852;2023-01-19T07:00:06;1.00;;;0.90;;
8488;SDS011;4281;45.772;12.852;2023-01-19T07:02:34;1.30;;;1.20;;
8488;SDS011;4281;45.772;12.852;2023-01-19T07:05:03;1.63;;;1.23;;
8488;SDS011;4281;45.772;12.852;2023-01-19T07:07:32;1.13;;;1.03;;
8488;SDS011;4281;45.772;12.852;2023-01-19T07:10:01;0.97;;;0.97;;
8488;SDS011;4281;45.772;12.852;2023-01-19T07:12:32;1.17;;;0.87;;
8488;SDS011;4281;45.772;12.852;2023-01-19T07:15:00;0.80;;;0.80;;
8488;SDS011;4281;45.772;12.852;2023-01-19T07:17:28;1.10;;;1.00;;
8488;SDS011;4281;45.772;12.852;2023-01-19T07:19:56;1.37;;;0.90;;
8488;SDS011;4281;45.772;12.852;2023-01-19T07:22:23;0.83;;;0.83;;
8488;SDS011;4281;45.772;12.852;2023-01-19T07:24:51;1.50;;;0.90;;
8488;SDS011;4281;45.772;12.852;2023-01-19T07:27:20;0.97;;;0.73;;
8488;SDS011;4281;45.772;12.852;2023-01-19T07:29:48;0.77;;;0.77;;
8488;SDS011;4281;45.772;12.852;2023-01-19T07:32:15;1.10;;;0.80;;
8488;SDS011;4281;45.772;12.852;2023-01-19T07:34:43;1.30;;;0.90;;
8488;SDS011;4281;45.772;12.852;2023-01-19T07:37:11;0.80;;;0.77;;
8488;SDS011;4281;45.772;12.852;2023-01-19T07:39:39;0.77;;;0.70;;
8488;SDS011;4281;45.772;12.852;2023-01-19T07:42:07;0.67;;;0.67;;
8488;SDS011;4281;45.772;12.852;2023-01-19T07:44:36;0.80;;;0.80;;
8488;SDS011;4281;45.772;12.852;2023-01-19T07:47:03;0.80;;;0.80;;
8488;SDS011;4281;45.772;12.852;2023-01-19T07:49:32;1.03;;;0.90;;
8488;SDS011;4281;45.772;12.852;2023-01-19T07:52:01;0.70;;;0.60;;
8488;SDS011;4281;45.772;12.852;2023-01-19T07:54:29;0.87;;;0.80;;
8488;SDS011;4281;45.772;12.852;2023-01-19T07:56:57;0.93;;;0.90;;
8488;SDS011;4281;45.772;12.852;2023-01-19T07:59:25;1.03;;;0.70;;
8488;SDS011;4281;45.772;12.852;2023-01-19T08:01:56;0.83;;;0.73;;
8488;SDS011;4281;45.772;12.852;2023-01-19T08:04:25;0.83;;;0.80;;
8488;SDS011;4281;45.772;12.852;2023-01-19T08:06:53;1.20;;;0.87;;
8488;SDS011;4281;45.772;12.852;2023-01-19T08:09:21;0.90;;;0.90;;
8488;SDS011;4281;45.772;12.852;2023-01-19T08:11:49;1.63;;;1.30;;
8488;SDS011;4281;45.772;12.852;2023-01-19T08:14:17;1.30;;;1.10;;
8488;SDS011;4281;45.772;12.852;2023-01-19T08:16:45;1.60;;;1.30;;
8488;SDS011;4281;45.772;12.852;2023-01-19T08:19:14;1.40;;;1.30;;
8488;SDS011;4281;45.772;12.852;2023-01-19T08:21:41;1.27;;;0.93;;
8488;SDS011;4281;45.772;12.852;2023-01-19T08:24:16;1.20;;;1.00;;
8488;SDS011;4281;45.772;12.852;2023-01-19T08:26:44;1.07;;;0.80;;
8488;SDS011;4281;45.772;12.852;2023-01-19T08:29:12;1.30;;;1.07;;
8488;SDS011;4281;45.772;12.852;2023-01-19T08:31:40;1.07;;;0.70;;
8488;SDS011;4281;45.772;12.852;2023-01-19T08:34:09;0.77;;;0.67;;
8488;SDS011;4281;45.772;12.852;2023-01-19T08:36:38;0.80;;;0.60;;
8488;SDS011;4281;45.772;12.852;2023-01-19T08:39:05;0.90;;;0.70;;
8488;SDS011;4281;45.772;12.852;2023-01-19T08:41:33;0.73;;;0.60;;
8488;SDS011;4281;45.772;12.852;2023-01-19T08:44:01;1.80;;;0.90;;
8488;SDS011;4281;45.772;12.852;2023-01-19T08:46:28;0.80;;;0.80;;
8488;SDS011;4281;45.772;12.852;2023-01-19T08:48:57;1.30;;;0.93;;
8488;SDS011;4281;45.772;12.852;2023-01-19T08:51:24;1.07;;;0.90;;
8488;SDS011;4281;45.772;12.852;2023-01-19T08:53:56;0.87;;;0.70;;
8488;SDS011;4281;45.772;12.852;2023-01-19T08:56:24;1.40;;;1.00;;
8488;SDS011;4281;45.772;12.852;2023-01-19T08:58:52;1.67;;;1.20;;
8488;SDS011;4281;45.772;12.852;2023-01-19T09:01:34;2.00;;;1.77;;
8488;SDS011;4281;45.772;12.852;2023-01-19T09:04:03;1.77;;;1.53;;
8488;SDS011;4281;45.772;12.852;2023-01-19T09:06:31;1.63;;;1.53;;
8488;SDS011;4281;45.772;12.852;2023-01-19T09:09:00;1.50;;;1.40;;
8488;SDS011;4281;45.772;12.852;2023-01-19T09:11:28;1.70;;;1.10;;
8488;SDS011;4281;45.772;12.852;2023-01-19T09:13:57;1.30;;;1.20;;
8488;SDS011;4281;45.772;12.852;2023-01-19T09:16:24;1.10;;;1.00;;
8488;SDS011;4281;45.772;12.852;2023-01-19T09:18:54;1.30;;;1.20;;
8488;SDS011;4281;45.772;12.852;2023-01-19T09:21:21;1.43;;;1.10;;
8488;SDS011;4281;45.772;12.852;2023-01-19T09:23:51;1.10;;;1.00;;
8488;SDS011;4281;45.772;12.852;2023-01-19T09:26:21;1.00;;;0.90;;
8488;SDS011;4281;45.772;12.852;2023-01-19T09:28:49;1.60;;;1.23;;
8488;SDS011;4281;45.772;12.852;2023-01-19T09:31:17;1.40;;;1.00;;
8488;SDS011;4281;45.772;12.852;2023-01-19T09:33:46;1.30;;;1.20;;
8488;SDS011;4281;45.772;12.852;2023-01-19T09:36:14;1.40;;;1.30;;
8488;SDS011;4281;45.772;12.852;2023-01-19T09:38:42;1.67;;;1.13;;
8488;SDS011;4281;45.772;12.852;2023-01-19T09:41:11;1.20;;;1.10;;
8488;SDS011;4281;45.772;12.852;2023-01-19T09:43:44;1.30;;;1.20;;
8488;SDS011;4281;45.772;12.852;2023-01-19T09:46:14;1.57;;;1.47;;
8488;SDS011;4281;45.772;12.852;2023-01-19T09:48:44;1.80;;;1.40;;
8488;SDS011;4281;45.772;12.852;2023-01-19T09:51:18;1.83;;;1.73;;
8488;SDS011;4281;45.772;12.852;2023-01-19T09:53:54;2.63;;;2.30;;
8488;SDS011;4281;45.772;12.852;2023-01-19T09:56:27;2.40;;;2.20;;
8488;SDS011;4281;45.772;12.852;2023-01-19T09:58:57;4.30;;;2.20;;
8488;SDS011;4281;45.772;12.852;2023-01-19T10:01:33;2.07;;;1.73;;
8488;SDS011;4281;45.772;12.852;2023-01-19T10:04:19;2.00;;;1.70;;
8488;SDS011;4281;45.772;12.852;2023-01-19T10:07:02;3.03;;;2.20;;
8488;SDS011;4281;45.772;12.852;2023-01-19T10:09:36;2.77;;;2.30;;
8488;SDS011;4281;45.772;12.852;2023-01-19T10:12:10;2.13;;;1.93;;
8488;SDS011;4281;45.772;12.852;2023-01-19T10:14:47;2.33;;;1.83;;
8488;SDS011;4281;45.772;12.852;2023-01-19T10:17:20;2.07;;;1.53;;
8488;SDS011;4281;45.772;12.852;2023-01-19T10:19:52;1.67;;;1.57;;
8488;SDS011;4281;45.772;12.852;2023-01-19T10:22:23;2.13;;;1.63;;
8488;SDS011;4281;45.772;12.852;2023-01-19T10:24:52;1.47;;;1.37;;
8488;SDS011;4281;45.772;12.852;2023-01-19T10:27:22;1.73;;;1.50;;
8488;SDS011;4281;45.772;12.852;2023-01-19T10:29:53;1.77;;;1.30;;
8488;SDS011;4281;45.772;12.852;2023-01-19T10:32:22;1.67;;;1.30;;
8488;SDS011;4281;45.772;12.852;2023-01-19T10:34:51;1.47;;;1.37;;
8488;SDS011;4281;45.772;12.852;2023-01-19T10:37:24;2.13;;;1.80;;
8488;SDS011;4281;45.772;12.852;2023-01-19T10:39:56;2.63;;;2.43;;
8488;SDS011;4281;45.772;12.852;2023-01-19T10:42:26;3.43;;;3.13;;
8488;SDS011;4281;45.772;12.852;2023-01-19T10:44:56;3.10;;;2.80;;
8488;SDS011;4281;45.772;12.852;2023-01-19T10:47:25;2.30;;;2.00;;
8488;SDS011;4281;45.772;12.852;2023-01-19T10:49:57;2.27;;;2.07;;
8488;SDS011;4281;45.772;12.852;2023-01-19T10:52:26;2.00;;;1.80;;
8488;SDS011;4281;45.772;12.852;2023-01-19T10:54:57;1.63;;;1.50;;
8488;SDS011;4281;45.772;12.852;2023-01-19T10:57:27;1.83;;;1.70;;
8488;SDS011;4281;45.772;12.852;2023-01-19T10:59:57;1.93;;;1.40;;
8488;SDS011;4281;45.772;12.852;2023-01-19T11:02:25;1.50;;;1.40;;
8488;SDS011;4281;45.772;12.852;2023-01-19T11:04:54;1.37;;;1.27;;
8488;SDS011;4281;45.772;12.852;2023-01-19T11:07:26;4.10;;;1.40;;
8488;SDS011;4281;45.772;12.852;2023-01-19T11:10:10;1.83;;;1.47;;
8488;SDS011;4281;45.772;12.852;2023-01-19T11:12:43;2.50;;;1.07;;
8488;SDS011;4281;45.772;12.852;2023-01-19T11:15:14;1.00;;;0.80;;
8488;SDS011;4281;45.772;12.852;2023-01-19T11:17:43;0.83;;;0.80;;
8488;SDS011;4281;45.772;12.852;2023-01-19T11:20:17;1.00;;;0.80;;
8488;SDS011;4281;45.772;12.852;2023-01-19T11:22:47;0.80;;;0.80;;
8488;SDS011;4281;45.772;12.852;2023-01-19T11:25:19;1.73;;;0.87;;
8488;SDS011;4281;45.772;12.852;2023-01-19T11:27:49;1.20;;;1.10;;
8488;SDS011;4281;45.772;12.852;2023-01-19T11:30:19;1.40;;;1.30;;
8488;SDS011;4281;45.772;12.852;2023-01-19T11:32:50;1.20;;;1.10;;
8488;SDS011;4281;45.772;12.852;2023-01-19T11:35:28;1.07;;;0.90;;
8488;SDS011;4281;45.772;12.852;2023-01-19T11:38:06;1.30;;;1.20;;
8488;SDS011;4281;45.772;12.852;2023-01-19T11:40:40;1.30;;;1.20;;
8488;SDS011;4281;45.772;12.852;2023-01-19T11:43:08;1.60;;;1.13;;
8488;SDS011;4281;45.772;12.852;2023-01-19T11:45:38;1.27;;;1.17;;
8488;SDS011;4281;45.772;12.852;2023-01-19T11:48:06;1.40;;;0.93;;
8488;SDS011;4281;45.772;12.852;2023-01-19T11:50:41;1.50;;;1.40;;
8488;SDS011;4281;45.772;12.852;2023-01-19T11:53:15;1.30;;;1.20;;
8488;SDS011;4281;45.772;12.852;2023-01-19T11:55:46;1.27;;;1.10;;
8488;SDS011;4281;45.772;12.852;2023-01-19T11:58:17;1.30;;;1.20;;
8488;SDS011;4281;45.772;12.852;2023-01-19T12:00:48;1.37;;;1.00;;
8488;SDS011;4281;45.772;12.852;2023-01-19T12:03:18;1.27;;;1.17;;
8488;SDS011;4281;45.772;12.852;2023-01-19T12:05:50;1.20;;;1.10;;
8488;SDS011;4281;45.772;12.852;2023-01-19T12:08:19;1.20;;;1.10;;
8488;SDS011;4281;45.772;12.852;2023-01-19T12:10:51;1.30;;;1.20;;
8488;SDS011;4281;45.772;12.852;2023-01-19T12:13:20;1.50;;;1.40;;
8488;SDS011;4281;45.772;12.852;2023-01-19T12:15:51;1.87;;;1.40;;
8488;SDS011;4281;45.772;12.852;2023-01-19T12:18:23;1.10;;;1.03;;
8488;SDS011;4281;45.772;12.852;2023-01-19T12:20:53;1.37;;;1.27;;
8488;SDS011;4281;45.772;12.852;2023-01-19T12:23:27;1.00;;;0.83;;
8488;SDS011;4281;45.772;12.852;2023-01-19T12:26:14;1.90;;;0.73;;
8488;SDS011;4281;45.772;12.852;2023-01-19T12:28:56;0.70;;;0.70;;
8488;SDS011;4281;45.772;12.852;2023-01-19T12:31:28;0.70;;;0.70;;
8488;SDS011;4281;45.772;12.852;2023-01-19T12:34:04;0.80;;;0.80;;
8488;SDS011;4281;45.772;12.852;2023-01-19T12:37:01;1.00;;;0.90;;
8488;SDS011;4281;45.772;12.852;2023-01-19T12:39:30;1.10;;;1.00;;
8488;SDS011;4281;45.772;12.852;2023-01-19T12:42:11;1.13;;;1.03;;
8488;SDS011;4281;45.772;12.852;2023-01-19T12:44:40;0.97;;;0.90;;
8488;SDS011;4281;45.772;12.852;2023-01-19T12:47:20;0.70;;;0.70;;
8488;SDS011;4281;45.772;12.852;2023-01-19T12:49:50;1.00;;;0.90;;
8488;SDS011;4281;45.772;12.852;2023-01-19T12:52:23;1.17;;;1.00;;
8488;SDS011;4281;45.772;12.852;2023-01-19T12:54:58;1.10;;;1.00;;
8488;SDS011;4281;45.772;12.852;2023-01-19T12:57:29;1.03;;;0.93;;
8488;SDS011;4281;45.772;12.852;2023-01-19T13:00:00;2.20;;;0.97;;
8488;SDS011;4281;45.772;12.852;2023-01-19T13:02:35;0.90;;;0.90;;
8488;SDS011;4281;45.772;12.852;2023-01-19T13:05:10;0.90;;;0.90;;
8488;SDS011;4281;45.772;12.852;2023-01-19T13:08:12;1.93;;;1.00;;
8488;SDS011;4281;45.772;12.852;2023-01-19T13:13:40;1.33;;;0.83;;
8488;SDS011;4281;45.772;12.852;2023-01-19T13:19:33;1.37;;;1.27;;
8488;SDS011;4281;45.772;12.852;2023-01-19T13:25:10;1.47;;;0.80;;
8488;SDS011;4281;45.772;12.852;2023-01-19T13:27:38;0.70;;;0.70;;
8488;SDS011;4281;45.772;12.852;2023-01-19T13:30:10;0.60;;;0.60;;
8488;SDS011;4281;45.772;12.852;2023-01-19T13:32:39;0.87;;;0.87;;
8488;SDS011;4281;45.772;12.852;2023-01-19T13:35:13;0.87;;;0.70;;
8488;SDS011;4281;45.772;12.852;2023-01-19T13:37:44;0.70;;;0.70;;
8488;SDS011;4281;45.772;12.852;2023-01-19T13:40:16;0.90;;;0.80;;
8488;SDS011;4281;45.772;12.852;2023-01-19T13:42:45;1.13;;;1.03;;
8488;SDS011;4281;45.772;12.852;2023-01-19T13:45:15;1.67;;;1.30;;
8488;SDS011;4281;45.772;12.852;2023-01-19T13:47:47;1.87;;;1.50;;
8488;SDS011;4281;45.772;12.852;2023-01-19T13:50:22;1.67;;;1.40;;
8488;SDS011;4281;45.772;12.852;2023-01-19T13:52:50;2.73;;;1.33;;
8488;SDS011;4281;45.772;12.852;2023-01-19T13:55:20;1.03;;;1.00;;
8488;SDS011;4281;45.772;12.852;2023-01-19T13:57:49;1.30;;;1.20;;
8488;SDS011;4281;45.772;12.852;2023-01-19T14:00:18;1.30;;;1.00;;
8488;SDS011;4281;45.772;12.852;2023-01-19T14:02:51;1.37;;;1.27;;
8488;SDS011;4281;45.772;12.852;2023-01-19T14:05:24;3.23;;;2.07;;
8488;SDS011;4281;45.772;12.852;2023-01-19T14:07:58;3.20;;;1.90;;
8488;SDS011;4281;45.772;12.852;2023-01-19T14:10:30;3.40;;;2.10;;
8488;SDS011;4281;45.772;12.852;2023-01-19T14:12:59;7.77;;;2.93;;
8488;SDS011;4281;45.772;12.852;2023-01-19T14:15:29;5.00;;;2.60;;
8488;SDS011;4281;45.772;12.852;2023-01-19T14:18:08;4.40;;;2.60;;
8488;SDS011;4281;45.772;12.852;2023-01-19T14:20:39;2.23;;;1.80;;
8488;SDS011;4281;45.772;12.852;2023-01-19T14:26:03;1.90;;;1.70;;
8488;SDS011;4281;45.772;12.852;2023-01-19T14:28:35;2.27;;;1.63;;
8488;SDS011;4281;45.772;12.852;2023-01-19T14:31:17;1.70;;;1.30;;
8488;SDS011;4281;45.772;12.852;2023-01-19T14:33:47;2.00;;;1.57;;
8488;SDS011;4281;45.772;12.852;2023-01-19T14:36:23;1.50;;;1.40;;
8488;SDS011;4281;45.772;12.852;2023-01-19T14:38:53;1.77;;;1.40;;
8488;SDS011;4281;45.772;12.852;2023-01-19T14:41:24;2.00;;;1.47;;
8488;SDS011;4281;45.772;12.852;2023-01-19T14:43:55;1.67;;;1.50;;
8488;SDS011;4281;45.772;12.852;2023-01-19T14:46:24;1.40;;;1.30;;
8488;SDS011;4281;45.772;12.852;2023-01-19T14:48:53;1.90;;;1.70;;
8488;SDS011;4281;45.772;12.852;2023-01-19T14:51:34;1.50;;;1.40;;
8488;SDS011;4281;45.772;12.852;2023-01-19T14:54:23;1.70;;;1.60;;
8488;SDS011;4281;45.772;12.852;2023-01-19T14:56:56;1.60;;;1.50;;
8488;SDS011;4281;45.772;12.852;2023-01-19T14:59:23;1.63;;;1.33;;
8488;SDS011;4281;45.772;12.852;2023-01-19T15:01:51;1.30;;;1.20;;
8488;SDS011;4281;45.772;12.852;2023-01-19T15:04:19;1.40;;;1.30;;
8488;SDS011;4281;45.772;12.852;2023-01-19T15:06:49;1.40;;;1.30;;
8488;SDS011;4281;45.772;12.852;2023-01-19T15:09:17;1.47;;;1.37;;
8488;SDS011;4281;45.772;12.852;2023-01-19T15:11:45;1.53;;;1.37;;
8488;SDS011;4281;45.772;12.852;2023-01-19T15:14:13;1.50;;;1.40;;
8488;SDS011;4281;45.772;12.852;2023-01-19T15:16:42;1.60;;;1.50;;
8488;SDS011;4281;45.772;12.852;2023-01-19T15:19:10;1.20;;;1.10;;
8488;SDS011;4281;45.772;12.852;2023-01-19T15:21:38;1.37;;;1.20;;
8488;SDS011;4281;45.772;12.852;2023-01-19T15:24:09;1.30;;;1.20;;
8488;SDS011;4281;45.772;12.852;2023-01-19T15:26:37;1.23;;;1.10;;
8488;SDS011;4281;45.772;12.852;2023-01-19T15:29:16;1.50;;;1.40;;
8488;SDS011;4281;45.772;12.852;2023-01-19T15:31:47;1.93;;;1.80;;
8488;SDS011;4281;45.772;12.852;2023-01-19T15:34:15;2.00;;;1.80;;
8488;SDS011;4281;45.772;12.852;2023-01-19T15:36:43;2.33;;;1.70;;
8488;SDS011;4281;45.772;12.852;2023-01-19T15:39:12;2.27;;;1.50;;